Time;durP1;ratioP1;P1;durP2;ratioP2;P2;SDS_P1;SDS_P2;PMS_P1;PMS_P2;Temp;Humidity;BMP_temperature;BMP_pressure;BME280_temperature;BME280_humidity;BME280_pressure;Samples;Min_cycle;Max_cycle;Signal;HPM_P1;HPM_P2
2023/03/02 00:01:39;;;;;;;;;;;;;;;-3.77;74.51;101281.73;106304;1278;25298;-54
2023/03/02 00:04:11;;;;;;;;;;;;;;;-3.81;74.42;101283.26;106414;1278;22610;-57
2023/03/02 00:06:41;;;;;;;;;;;;;;;-3.82;74.50;101287.05;106305;1278;25305;-58
2023/03/02 00:09:10;;;;;;;;;;;;;;;-3.82;74.54;101280.51;106433;1278;22529;-56
2023/03/02 00:11:39;;;;;;;;;;;;;;;-3.82;74.59;101277.63;106273;1264;23160;-54
2023/03/02 00:14:09;;;;;;;;;;;;;;;-3.83;74.70;101280.13;106228;1278;25450;-57
2023/03/02 00:16:39;;;;;;;;;;;;;;;-3.81;74.62;101280.85;106468;1274;23944;-58
2023/03/02 00:19:08;;;;;;;;;;;;;;;-3.80;74.57;101284.31;106314;1278;25409;-57
2023/03/02 00:21:37;;;;;;;;;;;;;;;-3.78;74.52;101284.52;106435;1278;22972;-57
2023/03/02 00:24:07;;;;;;;;;;;;;;;-3.78;74.43;101276.23;106343;1278;24393;-58
2023/03/02 00:26:37;;;;;;;;;;;;;;;-3.81;74.53;101275.39;106411;1278;25367;-57
2023/03/02 00:29:06;;;;;;;;;;;;;;;-3.82;74.79;101268.42;106317;1272;25364;-57
2023/03/02 00:31:36;;;;;;;;;;;;;;;-3.84;74.70;101271.27;106333;1273;25617;-56
2023/03/02 00:34:06;;;;;;;;;;;;;;;-3.84;74.57;101267.77;106395;1274;24272;-57
2023/03/02 00:36:35;;;;;;;;;;;;;;;-3.87;74.61;101267.16;106323;1277;22544;-58
2023/03/02 00:39:04;;;;;;;;;;;;;;;-3.92;74.55;101265.58;106283;1278;22534;-57
2023/03/02 00:41:33;;;;;;;;;;;;;;;-3.95;74.81;101266.20;106242;1278;22533;-57
2023/03/02 00:44:03;;;;;;;;;;;;;;;-3.95;74.88;101266.83;106251;1278;22505;-57
2023/03/02 00:46:32;;;;;;;;;;;;;;;-3.95;74.93;101264.56;106318;1278;22510;-55
2023/03/02 00:49:01;;;;;;;;;;;;;;;-3.95;74.99;101262.45;106206;1278;25340;-58
2023/03/02 00:51:30;;;;;;;;;;;;;;;-3.95;74.89;101260.83;106304;1278;22647;-57
2023/03/02 00:54:01;;;;;;;;;;;;;;;-3.96;74.86;101265.17;106251;1278;23942;-58
2023/03/02 00:56:31;;;;;;;;;;;;;;;-3.98;74.90;101259.59;106369;1264;22544;-55
2023/03/02 00:59:04;;;;;;;;;;;;;;;-4.00;74.76;101255.73;106446;1267;22704;-58
2023/03/02 01:01:33;;;;;;;;;;;;;;;-4.05;74.75;101254.52;106341;1278;22766;-55
2023/03/02 01:04:02;;;;;;;;;;;;;;;-4.10;74.90;101249.75;106282;1264;22504;-58
2023/03/02 01:06:31;;;;;;;;;;;;;;;-4.16;74.88;101248.70;106481;1272;22505;-59
2023/03/02 01:09:01;;;;;;;;;;;;;;;-4.22;74.95;101244.81;106601;1264;22645;-56
2023/03/02 01:11:30;;;;;;;;;;;;;;;-4.25;75.20;101240.44;106598;1264;22629;-59
2023/03/02 01:13:59;;;;;;;;;;;;;;;-4.25;75.74;101237.33;106663;1278;25403;-55
2023/03/02 01:16:28;;;;;;;;;;;;;;;-4.26;75.80;101236.67;106710;1272;22469;-57
2023/03/02 01:18:57;;;;;;;;;;;;;;;-4.25;75.68;101230.39;106647;1278;24404;-59
2023/03/02 01:21:27;;;;;;;;;;;;;;;-4.23;75.63;101224.30;106572;1278;22961;-58
2023/03/02 01:23:56;;;;;;;;;;;;;;;-4.22;75.47;101218.48;106630;1279;22631;-60
2023/03/02 01:26:25;;;;;;;;;;;;;;;-4.22;75.38;101211.55;106633;1278;22505;-56
2023/03/02 01:28:55;;;;;;;;;;;;;;;-4.24;75.30;101208.31;106725;1278;24090;-56
2023/03/02 01:31:25;;;;;;;;;;;;;;;-4.29;75.29;101207.42;106740;1276;25270;-59
2023/03/02 01:33:54;;;;;;;;;;;;;;;-4.33;75.44;101211.75;106658;1278;23241;-57
2023/03/02 01:36:23;;;;;;;;;;;;;;;-4.37;75.51;101204.27;106667;1278;25591;-56
2023/03/02 01:38:53;;;;;;;;;;;;;;;-4.41;75.71;101204.02;106661;1278;22505;-56
2023/03/02 01:41:23;;;;;;;;;;;;;;;-4.43;75.90;101203.83;106667;1264;22554;-57
2023/03/02 01:43:52;;;;;;;;;;;;;;;-4.42;76.03;101198.55;106736;1278;22505;-59
2023/03/02 01:46:23;;;;;;;;;;;;;;;-4.39;75.98;101200.64;106765;1273;24241;-57
2023/03/02 01:48:55;;;;;;;;;;;;;;;-4.38;75.92;101201.67;106656;1278;22740;-58
2023/03/02 01:51:25;;;;;;;;;;;;;;;-4.40;75.88;101200.14;106762;1278;22627;-59
2023/03/02 01:53:57;;;;;;;;;;;;;;;-4.44;75.83;101194.05;106698;1278;22481;-59
2023/03/02 01:56:28;;;;;;;;;;;;;;;-4.42;75.92;101189.98;106747;1273;26547;-55
2023/03/02 01:59:00;;;;;;;;;;;;;;;-4.43;75.80;101188.78;106792;1278;23743;-58
2023/03/02 02:01:32;;;;;;;;;;;;;;;-4.45;75.81;101192.09;106978;1267;24201;-55
2023/03/02 02:04:01;;;;;;;;;;;;;;;-4.47;75.90;101190.26;106758;1278;24324;-58
2023/03/02 02:06:32;;;;;;;;;;;;;;;-4.45;75.93;101181.66;106683;1276;24264;-57
2023/03/02 02:09:03;;;;;;;;;;;;;;;-4.44;75.85;101178.89;106633;1278;25397;-57
2023/03/02 02:11:33;;;;;;;;;;;;;;;-4.45;75.93;101178.84;106813;1278;24306;-59
2023/03/02 02:14:02;;;;;;;;;;;;;;;-4.47;75.94;101178.12;106695;1278;22989;-54
2023/03/02 02:16:33;;;;;;;;;;;;;;;-4.51;75.88;101180.65;106893;1267;22518;-55
2023/03/02 02:19:02;;;;;;;;;;;;;;;-4.55;75.87;101180.73;106767;1264;25406;-57
2023/03/02 02:21:32;;;;;;;;;;;;;;;-4.56;76.05;101181.33;106761;1278;22744;-57
2023/03/02 02:24:08;;;;;;;;;;;;;;;-4.58;76.11;101177.78;106643;1278;22506;-56
2023/03/02 02:26:39;;;;;;;;;;;;;;;-4.60;76.05;101177.35;106790;1264;24354;-58
2023/03/02 02:29:12;;;;;;;;;;;;;;;-4.62;76.11;101178.85;106806;1278;24536;-56
2023/03/02 02:31:43;;;;;;;;;;;;;;;-4.65;75.94;101176.36;106748;1278;25299;-56
2023/03/02 02:34:14;;;;;;;;;;;;;;;-4.69;76.12;101173.30;106761;1278;25403;-54
2023/03/02 02:36:47;;;;;;;;;;;;;;;-4.73;76.29;101167.00;106726;1267;22698;-56
2023/03/02 02:39:18;;;;;;;;;;;;;;;-4.73;76.49;101164.03;106675;1276;24255;-57
2023/03/02 02:41:49;;;;;;;;;;;;;;;-4.72;76.52;101161.02;106708;1260;22629;-60
2023/03/02 02:44:19;;;;;;;;;;;;;;;-4.69;76.55;101160.38;106680;1278;22608;-56
2023/03/02 02:46:48;;;;;;;;;;;;;;;-4.68;76.59;101161.12;106847;1278;22715;-56
2023/03/02 02:49:25;;;;;;;;;;;;;;;-4.65;76.56;101158.54;106668;1263;22627;-56
2023/03/02 02:51:54;;;;;;;;;;;;;;;-4.63;76.55;101160.46;106833;1273;22530;-57
2023/03/02 02:54:24;;;;;;;;;;;;;;;-4.62;76.56;101159.95;106627;1273;25295;-57
2023/03/02 02:56:54;;;;;;;;;;;;;;;-4.60;76.50;101153.13;106716;1278;22806;-60
2023/03/02 02:59:25;;;;;;;;;;;;;;;-4.59;76.50;101151.84;106712;1267;22663;-58
2023/03/02 03:01:56;;;;;;;;;;;;;;;-4.58;76.37;101148.74;106904;1278;23150;-55
2023/03/02 03:04:27;;;;;;;;;;;;;;;-4.58;76.34;101147.12;106629;1278;22553;-57
2023/03/02 03:06:57;;;;;;;;;;;;;;;-4.59;76.25;101151.45;106735;1272;24269;-59
2023/03/02 03:09:27;;;;;;;;;;;;;;;-4.62;76.28;101152.46;106797;1278;22513;-57
2023/03/02 03:11:57;;;;;;;;;;;;;;;-4.66;76.20;101154.23;106674;1278;22522;-59
2023/03/02 03:14:29;;;;;;;;;;;;;;;-4.73;76.31;101155.32;106735;1278;22501;-59
2023/03/02 03:16:58;;;;;;;;;;;;;;;-4.80;76.50;101150.71;106914;1278;22511;-56
2023/03/02 03:19:28;;;;;;;;;;;;;;;-4.79;76.51;101155.95;106709;1278;24215;-59
2023/03/02 03:21:59;;;;;;;;;;;;;;;-4.79;76.56;101156.27;106691;1278;22561;-57
2023/03/02 03:24:29;;;;;;;;;;;;;;;-4.79;76.59;101154.19;106748;1273;22508;-56
2023/03/02 03:26:59;;;;;;;;;;;;;;;-4.79;76.50;101156.25;106691;1278;22507;-57
2023/03/02 03:29:29;;;;;;;;;;;;;;;-4.82;76.55;101157.90;106573;1271;22548;-59
2023/03/02 03:31:58;;;;;;;;;;;;;;;-4.84;76.49;101157.40;106753;1278;25224;-57
2023/03/02 03:34:29;;;;;;;;;;;;;;;-4.89;76.24;101156.91;106679;1278;22587;-57
2023/03/02 03:37:01;;;;;;;;;;;;;;;-4.92;76.54;101154.72;106711;1264;25279;-57
2023/03/02 03:39:31;;;;;;;;;;;;;;;-4.92;76.59;101152.16;106719;1274;22502;-58
2023/03/02 03:42:00;;;;;;;;;;;;;;;-4.93;76.65;101149.11;106665;1277;23033;-59
2023/03/02 03:44:29;;;;;;;;;;;;;;;-4.95;76.79;101148.99;106768;1263;24274;-59
2023/03/02 03:46:58;;;;;;;;;;;;;;;-4.94;76.92;101147.36;106754;1267;22616;-58
2023/03/02 03:49:28;;;;;;;;;;;;;;;-4.94;76.81;101145.34;106627;1264;22498;-58
2023/03/02 03:51:57;;;;;;;;;;;;;;;-4.95;76.85;101141.66;106776;1275;22557;-56
2023/03/02 03:54:26;;;;;;;;;;;;;;;-4.96;76.84;101138.91;106795;1278;24193;-58
2023/03/02 03:56:56;;;;;;;;;;;;;;;-4.95;76.87;101141.02;106719;1278;22554;-57
2023/03/02 03:59:27;;;;;;;;;;;;;;;-4.94;76.75;101145.41;106647;1278;25486;-58
2023/03/02 04:01:57;;;;;;;;;;;;;;;-4.94;76.82;101147.36;106832;1278;23811;-55
2023/03/02 04:04:28;;;;;;;;;;;;;;;-4.93;76.81;101144.82;106640;1271;22533;-56
2023/03/02 04:06:58;;;;;;;;;;;;;;;-4.94;76.85;101140.98;106684;1278;22533;-56
2023/03/02 04:09:27;;;;;;;;;;;;;;;-4.93;76.88;101139.83;106736;1267;26663;-57
2023/03/02 04:12:00;;;;;;;;;;;;;;;-4.92;76.87;101139.70;106771;1278;22641;-57
2023/03/02 04:14:29;;;;;;;;;;;;;;;-4.97;76.70;101140.07;106746;1272;22505;-58
2023/03/02 04:16:58;;;;;;;;;;;;;;;-5.02;76.64;101140.77;106754;1277;22623;-56
2023/03/02 04:19:27;;;;;;;;;;;;;;;-5.06;77.17;101145.43;106692;1270;22554;-57
2023/03/02 04:22:00;;;;;;;;;;;;;;;-5.09;77.19;101145.60;106683;1275;23019;-56
2023/03/02 04:24:30;;;;;;;;;;;;;;;-5.13;77.30;101143.23;106881;1277;22500;-57
2023/03/02 04:26:59;;;;;;;;;;;;;;;-5.16;77.35;101138.35;106706;1276;23076;-56
2023/03/02 04:29:28;;;;;;;;;;;;;;;-5.20;77.42;101135.13;106625;1263;22554;-56
2023/03/02 04:31:57;;;;;;;;;;;;;;;-5.24;77.56;101137.14;106752;1278;22984;-57
2023/03/02 04:34:26;;;;;;;;;;;;;;;-5.24;77.63;101134.80;106708;1278;22546;-55
2023/03/02 04:36:56;;;;;;;;;;;;;;;-5.24;77.83;101135.42;106642;1267;23821;-54
2023/03/02 04:39:25;;;;;;;;;;;;;;;-5.26;77.77;101132.48;106671;1277;22921;-57
2023/03/02 04:41:55;;;;;;;;;;;;;;;-5.26;77.79;101135.22;106690;1277;24274;-57
2023/03/02 04:44:24;;;;;;;;;;;;;;;-5.26;77.84;101135.14;106732;1275;25239;-57
2023/03/02 04:46:53;;;;;;;;;;;;;;;-5.27;77.77;101131.83;106715;1278;25222;-60
2023/03/02 04:49:23;;;;;;;;;;;;;;;-5.28;77.83;101128.92;106707;1278;24242;-56
2023/03/02 04:51:52;;;;;;;;;;;;;;;-5.30;77.94;101132.08;106798;1278;24254;-58
2023/03/02 04:54:23;;;;;;;;;;;;;;;-5.31;77.94;101132.13;106749;1265;24179;-55
2023/03/02 04:56:53;;;;;;;;;;;;;;;-5.35;77.62;101131.64;106439;1274;24311;-58
2023/03/02 04:59:24;;;;;;;;;;;;;;;-5.39;77.66;101128.90;106675;1271;22518;-65
2023/03/02 05:01:54;;;;;;;;;;;;;;;-5.43;77.68;101127.61;106798;1278;25311;-57
2023/03/02 05:04:24;;;;;;;;;;;;;;;-5.45;77.93;101126.64;106511;1274;22514;-57
2023/03/02 05:06:53;;;;;;;;;;;;;;;-5.43;78.11;101125.29;106682;1263;22497;-57
2023/03/02 05:09:26;;;;;;;;;;;;;;;-5.43;77.80;101124.67;106667;1265;24187;-60
2023/03/02 05:11:55;;;;;;;;;;;;;;;-5.42;78.00;101122.52;106684;1275;22502;-59
2023/03/02 05:14:25;;;;;;;;;;;;;;;-5.43;77.66;101125.05;106784;1272;22632;-58
2023/03/02 05:16:54;;;;;;;;;;;;;;;-5.45;77.84;101129.11;106697;1278;22506;-57
2023/03/02 05:19:24;;;;;;;;;;;;;;;-5.43;78.23;101130.67;106541;1264;24263;-57
2023/03/02 05:21:53;;;;;;;;;;;;;;;-5.39;78.23;101134.25;106452;1264;22557;-57
2023/03/02 05:24:22;;;;;;;;;;;;;;;-5.38;77.98;101138.16;106536;1278;24263;-59
2023/03/02 05:26:51;;;;;;;;;;;;;;;-5.39;77.85;101137.36;106602;1271;24237;-58
2023/03/02 05:29:21;;;;;;;;;;;;;;;-5.39;77.94;101136.44;106682;1272;22636;-54
2023/03/02 05:31:50;;;;;;;;;;;;;;;-5.37;77.95;101137.73;106675;1270;22695;-54
2023/03/02 05:34:19;;;;;;;;;;;;;;;-5.34;77.92;101131.11;106568;1262;22726;-57
2023/03/02 05:36:48;;;;;;;;;;;;;;;-5.34;77.70;101131.03;106419;1271;22510;-57
2023/03/02 05:39:18;;;;;;;;;;;;;;;-5.35;77.82;101129.77;106381;1272;26525;-55
2023/03/02 05:41:47;;;;;;;;;;;;;;;-5.34;77.99;101132.82;106373;1262;22629;-57
2023/03/02 05:44:16;;;;;;;;;;;;;;;-5.32;78.16;101130.41;106720;1275;22512;-57
2023/03/02 05:46:45;;;;;;;;;;;;;;;-5.29;78.12;101132.73;106479;1271;22643;-56
2023/03/02 05:49:15;;;;;;;;;;;;;;;-5.28;78.14;101132.23;106469;1271;22502;-59
2023/03/02 05:51:44;;;;;;;;;;;;;;;-5.28;78.22;101128.80;106645;1271;22469;-55
2023/03/02 05:54:14;;;;;;;;;;;;;;;-5.27;78.21;101135.27;106494;1267;22490;-57
2023/03/02 05:56:43;;;;;;;;;;;;;;;-5.29;78.37;101141.05;106444;1265;24215;-58
2023/03/02 05:59:13;;;;;;;;;;;;;;;-5.34;79.15;101141.46;106538;1271;23880;-56
2023/03/02 06:01:42;;;;;;;;;;;;;;;-5.34;79.44;101143.08;106628;1278;22564;-58
2023/03/02 06:04:11;;;;;;;;;;;;;;;-5.35;79.22;101151.09;106631;1277;22756;-56
2023/03/02 06:06:40;;;;;;;;;;;;;;;-5.33;79.08;101147.95;106629;1276;22490;-59
2023/03/02 06:09:09;;;;;;;;;;;;;;;-5.31;79.00;101150.47;106743;1277;22502;-56
2023/03/02 06:11:39;;;;;;;;;;;;;;;-5.31;78.97;101149.00;106498;1263;22499;-57
2023/03/02 06:14:08;;;;;;;;;;;;;;;-5.31;79.00;101146.89;106604;1272;22501;-59
2023/03/02 06:16:37;;;;;;;;;;;;;;;-5.31;79.37;101155.95;106739;1277;22629;-55
2023/03/02 06:19:06;;;;;;;;;;;;;;;-5.30;80.36;101156.89;106672;1271;22513;-56
2023/03/02 06:21:35;;;;;;;;;;;;;;;-5.29;80.52;101160.03;106719;1277;24866;-56
2023/03/02 06:24:05;;;;;;;;;;;;;;;-5.27;80.41;101160.24;106693;1275;22651;-55
2023/03/02 06:26:34;;;;;;;;;;;;;;;-5.26;80.26;101164.39;106678;1272;22509;-56
2023/03/02 06:29:04;;;;;;;;;;;;;;;-5.25;80.12;101165.10;106676;1277;22604;-58
2023/03/02 06:31:33;;;;;;;;;;;;;;;-5.23;80.32;101162.66;106759;1277;22713;-56
2023/03/02 06:34:02;;;;;;;;;;;;;;;-5.21;80.50;101164.97;106714;1277;22628;-56
2023/03/02 06:36:32;;;;;;;;;;;;;;;-5.18;80.74;101159.98;106759;1275;24211;-56
2023/03/02 06:39:01;;;;;;;;;;;;;;;-5.14;80.96;101162.11;106550;1277;22510;-63
2023/03/02 06:41:32;;;;;;;;;;;;;;;-5.11;80.91;101164.91;106545;1264;22554;-62
2023/03/02 06:44:01;;;;;;;;;;;;;;;-5.08;81.20;101166.17;106636;1277;25431;-64
2023/03/02 06:46:30;;;;;;;;;;;;;;;-5.03;81.50;101162.39;106608;1277;22525;-64
2023/03/02 06:48:59;;;;;;;;;;;;;;;-4.98;81.46;101161.96;106530;1278;22522;-63
2023/03/02 06:51:28;;;;;;;;;;;;;;;-4.93;81.64;101162.31;106445;1277;22621;-63
2023/03/02 06:53:58;;;;;;;;;;;;;;;-4.89;81.82;101164.52;106514;1270;24391;-63
2023/03/02 06:56:27;;;;;;;;;;;;;;;-4.82;82.22;101161.40;106530;1278;22665;-64
2023/03/02 06:58:56;;;;;;;;;;;;;;;-4.77;82.16;101159.58;106471;1278;25581;-55
2023/03/02 07:01:25;;;;;;;;;;;;;;;-4.72;82.36;101162.36;106288;1263;22497;-57
2023/03/02 07:03:54;;;;;;;;;;;;;;;-4.65;82.67;101163.07;106575;1277;22501;-61
2023/03/02 07:06:24;;;;;;;;;;;;;;;-4.57;82.86;101163.38;106639;1274;25336;-62
2023/03/02 07:08:53;;;;;;;;;;;;;;;-4.51;83.01;101161.90;106549;1272;22989;-56
2023/03/02 07:11:22;;;;;;;;;;;;;;;-4.43;83.19;101155.30;106501;1263;25450;-58
2023/03/02 07:13:51;;;;;;;;;;;;;;;-4.35;83.39;101158.07;106419;1278;24355;-58
2023/03/02 07:16:21;;;;;;;;;;;;;;;-4.27;83.50;101164.94;106537;1271;25937;-58
2023/03/02 07:18:50;;;;;;;;;;;;;;;-4.18;83.74;101161.92;106507;1278;25854;-57
2023/03/02 07:21:19;;;;;;;;;;;;;;;-4.08;83.90;101161.10;106525;1275;24797;-58
2023/03/02 07:23:49;;;;;;;;;;;;;;;-3.98;84.16;101158.20;106594;1275;24186;-57
2023/03/02 07:26:18;;;;;;;;;;;;;;;-3.88;84.34;101159.58;106576;1272;25339;-57
2023/03/02 07:28:47;;;;;;;;;;;;;;;-3.78;84.68;101159.00;106468;1278;25279;-56
2023/03/02 07:31:17;;;;;;;;;;;;;;;-3.68;84.60;101155.77;106413;1265;22622;-56
2023/03/02 07:33:46;;;;;;;;;;;;;;;-3.60;84.71;101156.86;106503;1275;22547;-57
2023/03/02 07:36:15;;;;;;;;;;;;;;;-3.52;84.71;101155.30;106445;1278;22520;-57
2023/03/02 07:38:44;;;;;;;;;;;;;;;-3.45;84.60;101155.98;106399;1278;24228;-58
2023/03/02 07:41:15;;;;;;;;;;;;;;;-3.34;85.27;101154.06;106582;1272;24282;-54
2023/03/02 07:43:44;;;;;;;;;;;;;;;-3.24;85.19;101153.06;106405;1278;22670;-56
2023/03/02 07:46:14;;;;;;;;;;;;;;;-3.14;85.27;101155.58;106479;1278;22642;-57
2023/03/02 07:48:43;;;;;;;;;;;;;;;-3.06;85.10;101154.77;106402;1274;22514;-53
2023/03/02 07:51:12;;;;;;;;;;;;;;;-2.98;84.90;101157.79;106389;1274;22502;-56
2023/03/02 07:53:41;;;;;;;;;;;;;;;-2.91;84.93;101160.64;106410;1265;22644;-56
2023/03/02 07:56:11;;;;;;;;;;;;;;;-2.84;84.99;101161.92;106462;1272;22586;-54
2023/03/02 07:58:40;;;;;;;;;;;;;;;-2.77;84.97;101161.10;106621;1272;24703;-56
2023/03/02 08:01:09;;;;;;;;;;;;;;;-2.66;85.39;101162.74;106375;1278;24283;-54
2023/03/02 08:03:39;;;;;;;;;;;;;;;-2.55;86.08;101159.41;106441;1278;22497;-54
2023/03/02 08:06:09;;;;;;;;;;;;;;;-2.43;86.14;101157.53;106336;1264;22507;-54
2023/03/02 08:08:39;;;;;;;;;;;;;;;-2.33;86.19;101157.08;106499;1265;22500;-56
2023/03/02 08:11:09;;;;;;;;;;;;;;;-2.24;86.08;101156.95;106307;1278;22612;-56
2023/03/02 08:13:38;;;;;;;;;;;;;;;-2.16;86.37;101154.09;106349;1270;22697;-57
2023/03/02 08:16:09;;;;;;;;;;;;;;;-2.05;86.54;101153.84;106324;1271;22557;-57
2023/03/02 08:18:38;;;;;;;;;;;;;;;-1.94;86.63;101146.71;106396;1274;25382;-54
2023/03/02 08:21:12;;;;;;;;;;;;;;;-1.85;86.68;101140.95;106326;1263;24248;-58
2023/03/02 08:23:42;;;;;;;;;;;;;;;-1.73;86.67;101146.49;106379;1278;25329;-57
2023/03/02 08:26:11;;;;;;;;;;;;;;;-1.63;86.54;101145.97;106319;1278;25357;-57
2023/03/02 08:28:41;;;;;;;;;;;;;;;-1.55;86.49;101147.14;106324;1278;23936;-55
2023/03/02 08:31:11;;;;;;;;;;;;;;;-1.45;86.38;101146.23;106342;1275;22552;-57
2023/03/02 08:33:40;;;;;;;;;;;;;;;-1.39;86.40;101148.11;106299;1274;22628;-57
2023/03/02 08:36:12;;;;;;;;;;;;;;;-1.29;86.80;101151.27;106446;1271;24220;-57
2023/03/02 08:38:42;;;;;;;;;;;;;;;-1.16;86.96;101149.98;106430;1264;22498;-55
2023/03/02 08:41:13;;;;;;;;;;;;;;;-1.01;86.36;101151.82;106302;1278;25400;-57
2023/03/02 08:43:42;;;;;;;;;;;;;;;-0.90;86.60;101149.26;106451;1278;22647;-56
2023/03/02 08:46:12;;;;;;;;;;;;;;;-0.79;86.71;101147.05;106313;1264;23151;-57
2023/03/02 08:48:41;;;;;;;;;;;;;;;-0.69;86.60;101147.36;106312;1267;22558;-56
2023/03/02 08:51:12;;;;;;;;;;;;;;;-0.58;86.61;101149.40;106359;1275;22489;-58
2023/03/02 08:53:42;;;;;;;;;;;;;;;-0.47;86.48;101145.48;106345;1278;22551;-54
2023/03/02 08:56:20;;;;;;;;;;;;;;;-0.37;86.45;101140.92;106202;1272;22515;-54
2023/03/02 08:58:49;;;;;;;;;;;;;;;-0.26;85.97;101142.30;106591;1278;22501;-59
2023/03/02 09:01:20;;;;;;;;;;;;;;;-0.13;86.19;101142.85;106380;1278;22568;-59
2023/03/02 09:03:50;;;;;;;;;;;;;;;-0.03;86.24;101142.27;106337;1278;22560;-58
2023/03/02 09:06:19;;;;;;;;;;;;;;;0.09;86.10;101137.85;106387;1264;24224;-58
2023/03/02 09:08:48;;;;;;;;;;;;;;;0.18;85.98;101135.92;106309;1274;22638;-56
2023/03/02 09:11:18;;;;;;;;;;;;;;;0.27;86.00;101132.66;106301;1256;25380;-56
2023/03/02 09:13:48;;;;;;;;;;;;;;;0.37;85.85;101130.71;106329;1278;25329;-58
2023/03/02 09:16:19;;;;;;;;;;;;;;;0.48;85.71;101128.86;106282;1275;22542;-56
2023/03/02 09:18:48;;;;;;;;;;;;;;;0.59;85.84;101129.76;106300;1278;22574;-57
2023/03/02 09:21:17;;;;;;;;;;;;;;;0.69;85.82;101127.10;106278;1278;24271;-55
2023/03/02 09:23:47;;;;;;;;;;;;;;;0.81;85.56;101126.88;106264;1264;22494;-56
2023/03/02 09:26:16;;;;;;;;;;;;;;;0.89;85.17;101120.83;106248;1272;25530;-56
2023/03/02 09:28:45;;;;;;;;;;;;;;;0.99;84.85;101116.67;106264;1278;22561;-55
2023/03/02 09:31:15;;;;;;;;;;;;;;;1.07;84.59;101112.51;106348;1274;22505;-55
2023/03/02 09:33:44;;;;;;;;;;;;;;;1.15;84.42;101114.86;106427;1272;22516;-56
2023/03/02 09:36:18;;;;;;;;;;;;;;;1.22;84.20;101114.31;106282;1274;24363;-54
2023/03/02 09:38:47;;;;;;;;;;;;;;;1.31;83.46;101107.69;106226;1274;24378;-54
2023/03/02 09:41:33;;;;;;;;;;;;;;;1.43;82.50;101110.18;106209;1274;22572;-56
2023/03/02 09:44:11;;;;;;;;;;;;;;;1.58;81.73;101104.17;106243;1271;22506;-58
2023/03/02 09:46:43;;;;;;;;;;;;;;;1.72;81.18;101101.61;106300;1274;22505;-55
2023/03/02 09:49:21;;;;;;;;;;;;;;;1.84;80.67;101102.91;106350;1278;22501;-58
2023/03/02 09:51:56;;;;;;;;;;;;;;;1.96;81.03;101097.98;106338;1271;22502;-59
2023/03/02 09:54:26;;;;;;;;;;;;;;;2.02;80.53;101094.66;106566;1265;25366;-54
2023/03/02 09:56:56;;;;;;;;;;;;;;;2.08;80.43;101093.52;106333;1274;22520;-56
2023/03/02 09:59:27;;;;;;;;;;;;;;;2.15;80.20;101101.36;106324;1264;25396;-59
2023/03/02 10:02:01;;;;;;;;;;;;;;;2.19;79.90;101097.56;106610;1272;25205;-57
2023/03/02 10:04:32;;;;;;;;;;;;;;;2.26;79.91;101101.47;106670;1271;24297;-67
2023/03/02 10:07:11;;;;;;;;;;;;;;;2.35;79.87;101101.48;106611;1264;22531;-54
2023/03/02 10:09:40;;;;;;;;;;;;;;;2.41;79.89;101103.27;106544;1278;23028;-54
2023/03/02 10:12:16;;;;;;;;;;;;;;;2.46;79.22;101101.27;106615;1264;24246;-56
2023/03/02 10:14:49;;;;;;;;;;;;;;;2.55;79.22;101099.72;106756;1274;22499;-54
2023/03/02 10:17:30;;;;;;;;;;;;;;;2.62;78.73;101094.80;106737;1272;24247;-58
2023/03/02 10:20:02;;;;;;;;;;;;;;;2.68;77.77;101096.40;106519;1278;22518;-54
2023/03/02 10:22:34;;;;;;;;;;;;;;;2.76;77.86;101095.87;106546;1278;22569;-55
2023/03/02 10:25:08;;;;;;;;;;;;;;;2.81;77.61;101092.69;106383;1274;22639;-55
2023/03/02 10:27:39;;;;;;;;;;;;;;;2.88;77.64;101091.84;106525;1278;22941;-57
2023/03/02 10:30:16;;;;;;;;;;;;;;;2.93;77.33;101089.34;106540;1274;22639;-58
2023/03/02 10:32:47;;;;;;;;;;;;;;;2.98;77.72;101093.02;106254;1278;22500;-55
2023/03/02 10:35:19;;;;;;;;;;;;;;;3.04;77.60;101083.19;106305;1278;22495;-56
2023/03/02 10:37:50;;;;;;;;;;;;;;;3.10;77.47;101083.05;106463;1278;23933;-56
2023/03/02 10:40:29;;;;;;;;;;;;;;;3.15;77.19;101086.95;106333;1275;22524;-54
2023/03/02 10:42:58;;;;;;;;;;;;;;;3.21;76.64;101083.19;106421;1264;22740;-58
2023/03/02 10:45:29;;;;;;;;;;;;;;;3.29;76.27;101075.54;106275;1278;22524;-54
2023/03/02 10:48:02;;;;;;;;;;;;;;;3.38;76.53;101078.52;106548;1275;23791;-57
2023/03/02 10:50:32;;;;;;;;;;;;;;;3.46;76.64;101074.20;106591;1278;22531;-56
2023/03/02 10:53:01;;;;;;;;;;;;;;;3.52;75.99;101064.96;106695;1278;22459;-54
2023/03/02 10:55:32;;;;;;;;;;;;;;;3.65;75.84;101062.05;106612;1266;22639;-54
2023/03/02 10:58:03;;;;;;;;;;;;;;;3.75;75.40;101060.69;106449;1267;25330;-58
2023/03/02 11:00:33;;;;;;;;;;;;;;;3.82;75.60;101054.20;106446;1271;23930;-57
2023/03/02 11:03:03;;;;;;;;;;;;;;;3.87;75.86;101053.27;106353;1263;22499;-54
2023/03/02 11:05:33;;;;;;;;;;;;;;;3.95;75.78;101048.66;106397;1275;25225;-56
2023/03/02 11:08:04;;;;;;;;;;;;;;;4.11;75.38;101046.39;106378;1278;24359;-57
2023/03/02 11:10:35;;;;;;;;;;;;;;;4.23;74.74;101039.95;106401;1272;22503;-57
2023/03/02 11:13:15;;;;;;;;;;;;;;;4.27;74.25;101036.63;106565;1278;24316;-56
2023/03/02 11:15:46;;;;;;;;;;;;;;;4.33;74.61;101034.73;106359;1278;22510;-57
2023/03/02 11:18:22;;;;;;;;;;;;;;;4.35;74.63;101033.73;106382;1275;25516;-57
2023/03/02 11:20:53;;;;;;;;;;;;;;;4.39;74.52;101031.16;106532;1275;25329;-55
2023/03/02 11:23:30;;;;;;;;;;;;;;;4.43;74.73;101028.17;106580;1264;23870;-56
2023/03/02 11:26:02;;;;;;;;;;;;;;;4.45;74.52;101021.82;106413;1278;22593;-56
2023/03/02 11:28:34;;;;;;;;;;;;;;;4.48;73.18;101020.90;106764;1272;26599;-57
2023/03/02 11:31:06;;;;;;;;;;;;;;;4.49;73.37;101019.88;106616;1274;22534;-58
2023/03/02 11:33:39;;;;;;;;;;;;;;;4.50;73.44;101021.44;106556;1278;24235;-54
2023/03/02 11:36:12;;;;;;;;;;;;;;;4.58;73.56;101017.75;106585;1278;25313;-55
2023/03/02 11:38:46;;;;;;;;;;;;;;;4.60;73.45;101014.06;106632;1278;22715;-54
2023/03/02 11:41:26;;;;;;;;;;;;;;;4.57;73.12;101011.59;106546;1272;23394;-57
2023/03/02 11:43:56;;;;;;;;;;;;;;;4.57;73.13;101007.80;106598;1278;23947;-55
2023/03/02 11:46:29;;;;;;;;;;;;;;;4.59;73.00;101003.66;106771;1271;22518;-55
2023/03/02 11:49:00;;;;;;;;;;;;;;;4.62;72.93;101001.80;106555;1278;24231;-57
2023/03/02 11:51:32;;;;;;;;;;;;;;;4.69;73.05;100998.27;106550;1274;25484;-55
2023/03/02 11:54:03;;;;;;;;;;;;;;;4.78;72.69;100999.23;106728;1279;23925;-54
2023/03/02 11:56:34;;;;;;;;;;;;;;;4.86;72.70;100990.02;106593;1274;22988;-55
2023/03/02 11:59:06;;;;;;;;;;;;;;;4.89;72.39;100988.05;106561;1278;24405;-57
2023/03/02 12:01:37;;;;;;;;;;;;;;;4.94;72.49;100981.95;106524;1278;25339;-56
2023/03/02 12:04:11;;;;;;;;;;;;;;;4.99;72.29;100979.03;106555;1271;22508;-56
2023/03/02 12:06:42;;;;;;;;;;;;;;;5.01;72.09;100973.38;106665;1274;22690;-59
2023/03/02 12:09:29;;;;;;;;;;;;;;;4.99;71.90;100970.19;106506;1278;22535;-54
2023/03/02 12:12:00;;;;;;;;;;;;;;;5.01;71.85;100969.52;106557;1278;22504;-56
2023/03/02 12:14:37;;;;;;;;;;;;;;;5.03;71.14;100966.85;106591;1278;26758;-57
2023/03/02 12:17:20;;;;;;;;;;;;;;;5.11;70.96;100958.16;106662;1278;23887;-56
2023/03/02 12:19:49;;;;;;;;;;;;;;;5.19;70.96;100954.06;106788;1271;25351;-57
2023/03/02 12:22:28;;;;;;;;;;;;;;;5.22;70.73;100952.80;106656;1278;22663;-54
2023/03/02 12:25:02;;;;;;;;;;;;;;;5.25;70.20;100948.16;106625;1268;25867;-56
2023/03/02 12:27:36;;;;;;;;;;;;;;;5.25;70.68;100948.40;106568;1278;25342;-56
2023/03/02 12:30:24;;;;;;;;;;;;;;;5.25;70.42;100941.98;106702;1275;22546;-56
2023/03/02 12:33:02;;;;;;;;;;;;;;;5.25;70.63;100943.48;106761;1278;22498;-57
2023/03/02 12:35:32;;;;;;;;;;;;;;;5.26;70.69;100940.23;106663;1267;22816;-57
2023/03/02 12:38:03;;;;;;;;;;;;;;;5.25;70.48;100943.09;106619;1278;24234;-58
2023/03/02 12:40:49;;;;;;;;;;;;;;;5.27;70.46;100941.46;106529;1278;22554;-54
2023/03/02 12:43:25;;;;;;;;;;;;;;;5.35;70.48;100936.88;106629;1278;24224;-54
2023/03/02 12:46:14;;;;;;;;;;;;;;;5.38;70.24;100938.34;106644;1278;22540;-57
2023/03/02 12:48:44;;;;;;;;;;;;;;;5.40;70.06;100933.94;106507;1278;24220;-55